Time;durP1;ratioP1;P1;durP2;ratioP2;P2;SDS_P1;SDS_P2;PMS_P1;PMS_P2;Temp;Humidity;BMP_temperature;BMP_pressure;BME280_temperature;BME280_humidity;BME280_pressure;Samples;Min_cycle;Max_cycle;Signal;HPM_P1;HPM_P2
2023/05/07 00:00:25;;;;;;;3.28;0.50;;;;;;;33.66;44.92;99500.00;7397207;19;20333;-64
2023/05/07 00:02:52;;;;;;;8.77;1.23;;;;;;;21.61;100.00;99514.47;7401744;19;20336;-65
2023/05/07 00:05:19;;;;;;;1.45;0.70;;;;;;;19.20;100.00;99516.47;7397011;19;20007;-65
2023/05/07 00:07:45;;;;;;;2.63;1.20;;;;;;;18.37;100.00;99520.00;7397468;19;20027;-67
2023/05/07 00:10:12;;;;;;;3.80;1.17;;;;;;;27.65;93.18;99509.88;7396921;19;20471;-66
2023/05/07 00:12:38;;;;;;;3.20;0.60;;;;;;;32.30;60.31;99511.53;7398082;19;20007;-66
2023/05/07 00:15:05;;;;;;;5.25;1.10;;;;;;;33.41;53.86;99508.84;7396801;19;20489;-66
2023/05/07 00:17:33;;;;;;;4.80;0.95;;;;;;;33.72;51.43;99509.00;7397002;19;20345;-67
2023/05/07 00:19:59;;;;;;;1.95;0.50;;;;;;;33.89;49.76;99511.28;7400770;19;20011;-67
2023/05/07 00:22:25;;;;;;;1.88;1.17;;;;;;;33.60;49.21;99509.13;7400151;19;20017;-68
2023/05/07 00:24:51;;;;;;;12.85;1.33;;;;;;;33.96;48.66;99515.94;7396889;19;20007;-68
2023/05/07 00:27:17;;;;;;;3.45;0.82;;;;;;;34.32;47.14;99511.94;7397196;19;20049;-68
2023/05/07 00:29:43;;;;;;;2.75;1.20;;;;;;;34.44;46.65;99513.91;7394253;19;20105;-69
2023/05/07 00:32:10;;;;;;;1.10;0.73;;;;;;;34.38;46.24;99510.72;7399491;19;20026;-69
2023/05/07 00:34:36;;;;;;;6.20;0.82;;;;;;;34.32;45.82;99511.19;7396419;19;20385;-69
2023/05/07 00:37:02;;;;;;;3.50;0.90;;;;;;;34.27;45.47;99507.38;7395925;19;20019;-69
2023/05/07 00:39:28;;;;;;;1.27;0.82;;;;;;;34.28;45.43;99514.63;7396150;19;20373;-68
2023/05/07 00:41:54;;;;;;;3.47;0.77;;;;;;;33.24;46.41;99518.81;7398553;19;20472;-68
2023/05/07 00:44:20;;;;;;;1.42;0.85;;;;;;;33.48;46.23;99520.03;7396206;19;20048;-69
2023/05/07 00:46:49;;;;;;;2.90;0.82;;;;;;;23.65;91.32;99534.50;7394519;19;20014;-71
2023/05/07 00:49:16;;;;;;;0.40;0.40;;;;;;;23.75;100.00;99533.31;7397152;19;20018;-69
2023/05/07 00:51:42;;;;;;;1.75;0.75;;;;;;;25.93;100.00;99512.88;7395983;19;20026;-69
2023/05/07 00:54:08;;;;;;;2.30;0.28;;;;;;;31.16;56.95;99508.47;7394546;19;20718;-68
2023/05/07 00:56:36;;;;;;;2.40;0.98;;;;;;;30.76;63.00;99512.50;7396119;19;20023;-69
2023/05/07 00:59:03;;;;;;;1.52;0.70;;;;;;;21.57;100.00;99522.56;7395008;19;20050;-69
2023/05/07 01:01:29;;;;;;;2.08;0.73;;;;;;;18.97;100.00;99531.56;7396104;19;20503;-69
2023/05/07 01:03:57;;;;;;;5.95;0.95;;;;;;;18.40;100.00;99530.22;7393894;19;20068;-69
2023/05/07 01:06:25;;;;;;;2.15;0.95;;;;;;;18.11;100.00;99527.06;7394138;19;20026;-69
2023/05/07 01:08:52;;;;;;;1.15;0.70;;;;;;;18.39;100.00;99535.09;7393794;19;20015;-69
2023/05/07 01:11:20;;;;;;;2.63;0.98;;;;;;;18.32;100.00;99535.72;7396411;19;20015;-69
2023/05/07 01:13:47;;;;;;;4.85;1.05;;;;;;;18.31;100.00;99544.72;7395117;19;20043;-69
2023/05/07 01:16:13;;;;;;;2.15;0.50;;;;;;;18.51;100.00;99541.34;7394581;19;20013;-69
2023/05/07 01:18:40;;;;;;;3.08;1.25;;;;;;;19.31;100.00;99538.84;7394155;19;20017;-71
2023/05/07 01:21:10;;;;;;;1.27;0.40;;;;;;;19.21;100.00;99545.47;7392977;19;20084;-71
2023/05/07 01:23:38;;;;;;;3.03;1.00;;;;;;;20.77;100.00;99532.22;7397722;19;20017;-72
2023/05/07 01:26:04;;;;;;;7.55;1.52;;;;;;;25.13;100.00;99532.59;7394736;19;20007;-72
2023/05/07 01:28:32;;;;;;;5.28;1.42;;;;;;;26.53;94.47;99527.66;7393768;19;20014;-71
2023/05/07 01:31:03;;;;;;;3.22;0.75;;;;;;;30.22;75.41;99527.06;7391419;19;20015;-71
2023/05/07 01:33:33;;;;;;;2.17;1.10;;;;;;;28.49;85.18;99527.50;7396085;19;20014;-69
2023/05/07 01:36:02;;;;;;;4.00;1.13;;;;;;;31.65;64.37;99529.38;7392111;19;20021;-71
2023/05/07 01:38:29;;;;;;;4.85;1.45;;;;;;;32.15;59.38;99529.44;7394172;19;20014;-70
2023/05/07 01:40:56;;;;;;;6.40;1.25;;;;;;;32.35;58.19;99529.81;7393699;19;20044;-70
2023/05/07 01:43:22;;;;;;;5.47;1.13;;;;;;;31.87;57.66;99528.53;7395951;19;20482;-70
2023/05/07 01:45:49;;;;;;;3.15;1.20;;;;;;;32.76;54.12;99531.41;7391754;19;20437;-71
2023/05/07 01:48:16;;;;;;;4.80;0.75;;;;;;;33.11;52.86;99539.03;7391756;19;20490;-72
2023/05/07 01:50:44;;;;;;;2.70;1.50;;;;;;;33.44;51.19;99530.66;7391569;19;20007;-72
2023/05/07 01:53:10;;;;;;;1.92;0.82;;;;;;;33.66;50.45;99540.44;7396008;19;20006;-71
2023/05/07 01:55:39;;;;;;;6.30;0.52;;;;;;;33.68;48.80;99531.88;7394777;19;20370;-71
2023/05/07 01:58:06;;;;;;;1.15;0.60;;;;;;;33.69;48.65;99539.16;7392884;19;20018;-71
2023/05/07 02:00:32;;;;;;;4.43;1.67;;;;;;;33.77;47.77;99538.81;7391888;19;20006;-70
2023/05/07 02:02:58;;;;;;;0.95;0.52;;;;;;;33.33;48.09;99543.06;7393470;19;20014;-71
2023/05/07 02:05:36;;;;;;;1.67;0.57;;;;;;;33.89;47.13;99545.22;7391951;19;20006;-70
2023/05/07 02:08:08;;;;;;;6.28;1.75;;;;;;;34.01;46.93;99545.81;7391799;19;20010;-71
2023/05/07 02:10:35;;;;;;;8.75;1.33;;;;;;;34.03;46.12;99558.22;7393098;19;20007;-70
2023/05/07 02:13:02;;;;;;;7.50;1.48;;;;;;;34.03;45.79;99555.34;7391303;19;20464;-71
2023/05/07 02:15:28;;;;;;;4.15;1.77;;;;;;;33.99;45.38;99563.03;7396154;19;20018;-71
2023/05/07 02:18:07;;;;;;;2.95;1.10;;;;;;;33.96;44.99;99565.06;7391190;19;20002;-72
2023/05/07 02:20:33;;;;;;;5.93;1.95;;;;;;;33.87;45.37;99571.13;7397351;19;20011;-71
2023/05/07 02:23:00;;;;;;;2.75;1.35;;;;;;;33.79;45.05;99577.22;7391647;19;20456;-71
2023/05/07 02:25:29;;;;;;;10.68;1.17;;;;;;;33.67;44.93;99565.06;7395269;19;20015;-72
2023/05/07 02:27:56;;;;;;;4.88;1.85;;;;;;;33.73;44.23;99571.16;7391637;19;20039;-72
2023/05/07 02:30:29;;;;;;;9.32;2.22;;;;;;;33.76;44.47;99574.88;7390711;19;20007;-72
2023/05/07 02:32:57;;;;;;;2.08;1.25;;;;;;;33.74;44.41;99581.31;7393807;19;20032;-71
2023/05/07 02:35:25;;;;;;;8.25;2.03;;;;;;;33.69;44.25;99575.97;7397808;19;20011;-71
2023/05/07 02:37:51;;;;;;;8.48;2.53;;;;;;;33.69;44.02;99584.63;7402559;19;20015;-71
2023/05/07 02:40:18;;;;;;;5.53;2.10;;;;;;;33.63;43.92;99588.69;7402361;19;20017;-73
2023/05/07 02:42:44;;;;;;;5.00;1.30;;;;;;;33.05;44.58;99587.78;7398775;19;20387;-72
2023/05/07 02:45:11;;;;;;;4.53;1.88;;;;;;;33.19;44.41;99597.94;7404268;19;20010;-71
2023/05/07 02:47:38;;;;;;;6.97;2.05;;;;;;;33.00;44.64;99597.59;7398637;19;20007;-72
2023/05/07 02:50:05;;;;;;;6.88;1.38;;;;;;;33.11;44.48;99597.50;7402169;19;20011;-72
2023/05/07 02:52:31;;;;;;;7.20;2.20;;;;;;;33.03;44.28;99602.09;7397483;19;20010;-72
2023/05/07 02:54:58;;;;;;;7.20;1.98;;;;;;;32.95;44.70;99598.72;7400784;19;20021;-70
2023/05/07 02:57:24;;;;;;;2.42;1.30;;;;;;;32.07;46.16;99598.91;7399846;19;20368;-72
2023/05/07 02:59:50;;;;;;;5.22;2.00;;;;;;;32.63;45.20;99592.72;7398538;19;20015;-71
2023/05/07 03:02:18;;;;;;;5.93;2.55;;;;;;;32.14;46.07;99597.84;7395345;19;20014;-72
2023/05/07 03:04:44;;;;;;;3.50;1.08;;;;;;;32.40;45.31;99600.72;7400059;19;20031;-72
2023/05/07 03:07:10;;;;;;;6.18;1.50;;;;;;;32.41;45.59;99600.09;7399514;19;20010;-72
2023/05/07 03:09:36;;;;;;;6.35;2.53;;;;;;;32.40;46.23;99615.88;7398585;19;20074;-72
2023/05/07 03:12:03;;;;;;;4.45;2.03;;;;;;;32.68;45.28;99614.59;7398194;19;20025;-73
2023/05/07 03:14:30;;;;;;;8.25;2.13;;;;;;;32.67;45.33;99606.59;7400522;19;20014;-71
2023/05/07 03:16:56;;;;;;;11.20;2.72;;;;;;;32.73;44.87;99616.34;7398253;19;20032;-72
2023/05/07 03:19:22;;;;;;;3.60;1.55;;;;;;;32.65;44.69;99615.91;7400268;19;20014;-72
2023/05/07 03:21:48;;;;;;;12.20;2.85;;;;;;;32.55;44.53;99618.19;7394989;19;20040;-71
2023/05/07 03:24:14;;;;;;;5.32;2.13;;;;;;;32.46;44.99;99622.00;7399419;19;20014;-71
2023/05/07 03:26:40;;;;;;;8.25;2.20;;;;;;;32.14;45.80;99626.66;7399096;19;20019;-71
2023/05/07 03:29:07;;;;;;;9.45;1.92;;;;;;;32.40;45.64;99624.53;7397309;19;20364;-72
2023/05/07 03:31:33;;;;;;;11.68;3.33;;;;;;;32.54;45.18;99628.25;7399619;19;20014;-72
2023/05/07 03:34:01;;;;;;;6.10;1.48;;;;;;;32.78;44.87;99623.84;7399054;19;20011;-71
2023/05/07 03:36:27;;;;;;;7.25;2.00;;;;;;;32.97;44.97;99627.69;7397616;19;20018;-71
2023/05/07 03:38:54;;;;;;;6.80;2.03;;;;;;;33.24;44.19;99633.53;7397669;19;20016;-71
2023/05/07 03:41:25;;;;;;;7.43;2.92;;;;;;;33.53;43.64;99636.53;7397401;19;20408;-72
2023/05/07 03:43:51;;;;;;;2.90;1.10;;;;;;;33.29;43.48;99629.44;7398555;19;20015;-72
2023/05/07 03:46:18;;;;;;;9.43;2.20;;;;;;;33.73;42.84;99637.59;7399250;19;20014;-72
2023/05/07 03:48:44;;;;;;;7.25;2.38;;;;;;;33.84;42.74;99639.63;7398833;19;20035;-72
2023/05/07 03:51:13;;;;;;;5.78;1.67;;;;;;;33.83;42.54;99640.28;7395981;19;20007;-72
2023/05/07 03:53:39;;;;;;;9.70;2.30;;;;;;;33.91;42.37;99641.44;7396390;19;20015;-72
2023/05/07 03:56:05;;;;;;;7.10;2.92;;;;;;;33.85;42.15;99638.22;7395943;19;20066;-72
2023/05/07 03:58:35;;;;;;;8.33;1.57;;;;;;;33.90;42.20;99634.13;7396016;19;20010;-71
2023/05/07 04:01:07;;;;;;;11.23;1.95;;;;;;;33.86;42.03;99630.28;7395331;19;20018;-72
2023/05/07 04:03:33;;;;;;;12.60;3.30;;;;;;;33.88;41.97;99630.41;7395601;19;20017;-72
2023/05/07 04:06:00;;;;;;;6.95;2.25;;;;;;;34.10;41.77;99628.66;7395674;19;20029;-72
2023/05/07 04:08:26;;;;;;;7.10;2.40;;;;;;;34.04;41.04;99623.34;7395603;19;20019;-71
2023/05/07 04:10:58;;;;;;;22.15;3.72;;;;;;;33.98;41.67;99631.66;7397135;19;20387;-72
2023/05/07 04:13:27;;;;;;;8.68;3.40;;;;;;;33.99;41.47;99624.50;7395402;19;20014;-73
2023/05/07 04:15:55;;;;;;;9.25;3.42;;;;;;;33.92;41.12;99625.56;7394997;19;20019;-72
2023/05/07 04:18:21;;;;;;;13.00;2.92;;;;;;;34.07;41.01;99635.72;7395395;19;20010;-72
2023/05/07 04:20:51;;;;;;;13.77;3.55;;;;;;;34.11;40.88;99630.16;7394881;19;20036;-72
2023/05/07 04:23:18;;;;;;;6.18;2.85;;;;;;;34.12;40.55;99632.41;7395248;19;20023;-71
2023/05/07 04:25:45;;;;;;;9.85;3.13;;;;;;;33.91;40.45;99632.75;7399939;19;20014;-72
2023/05/07 04:28:20;;;;;;;11.70;4.38;;;;;;;31.07;43.88;99630.97;7394525;19;20666;-72
2023/05/07 04:30:47;;;;;;;15.30;3.83;;;;;;;33.37;42.19;99630.66;7394085;19;20022;-72
2023/05/07 04:33:16;;;;;;;12.55;3.80;;;;;;;33.77;41.47;99623.34;7396241;19;20011;-73
2023/05/07 04:35:44;;;;;;;7.20;3.05;;;;;;;33.82;41.03;99621.41;7398322;19;20007;-72
2023/05/07 04:38:10;;;;;;;6.05;3.10;;;;;;;33.59;41.40;99620.28;7394787;19;20463;-73
2023/05/07 04:40:37;;;;;;;25.05;5.00;;;;;;;33.49;41.29;99618.97;7395478;19;20018;-72
2023/05/07 04:43:04;;;;;;;13.07;4.40;;;;;;;32.81;42.09;99627.59;7394534;19;20467;-72
2023/05/07 04:45:33;;;;;;;13.68;3.63;;;;;;;32.81;41.90;99634.06;7398702;19;20013;-70
2023/05/07 04:47:59;;;;;;;16.80;5.55;;;;;;;32.52;42.57;99631.03;7396488;19;20019;-71
2023/05/07 04:50:26;;;;;;;16.38;3.92;;;;;;;31.89;43.03;99637.38;7398486;19;20045;-71
2023/05/07 04:52:56;;;;;;;;;;;;;;;32.08;43.64;99639.97;7394994;19;20011;-70
2023/05/07 04:55:23;;;;;;;7.22;2.25;;;;;;;32.88;42.80;99632.28;7396986;19;20244;-70
2023/05/07 04:57:50;;;;;;;11.07;5.65;;;;;;;32.66;42.87;99625.31;7394979;19;20014;-70
2023/05/07 05:00:19;;;;;;;10.40;3.45;;;;;;;33.33;41.72;99630.41;7396649;19;20358;-72
2023/05/07 05:02:46;;;;;;;3.20;1.67;;;;;;;34.27;40.21;99636.72;7398376;19;20784;-71
2023/05/07 05:05:16;;;;;;;10.88;2.80;;;;;;;34.49;39.65;99648.63;7396562;19;20015;-73
2023/05/07 05:07:42;;;;;;;9.88;3.30;;;;;;;34.50;39.48;99641.47;7396034;19;20014;-71
2023/05/07 05:10:09;;;;;;;5.53;2.20;;;;;;;34.38;39.32;99650.28;7394570;19;20017;-72
2023/05/07 05:12:37;;;;;;;13.15;3.20;;;;;;;34.30;39.34;99653.56;7393501;19;20039;-71
2023/05/07 05:15:05;;;;;;;12.52;2.30;;;;;;;34.09;39.53;99656.81;7396573;19;20018;-71
2023/05/07 05:17:34;;;;;;;8.57;2.45;;;;;;;33.62;40.03;99667.34;7393908;19;20079;-72
2023/05/07 05:20:01;;;;;;;6.53;2.67;;;;;;;33.66;39.96;99670.44;7396901;19;20555;-71
2023/05/07 05:22:30;;;;;;;8.15;2.53;;;;;;;33.68;39.81;99670.56;7393642;19;20366;-70
2023/05/07 05:24:57;;;;;;;5.55;1.58;;;;;;;33.61;39.61;99665.88;7395382;19;20033;-69
2023/05/07 05:27:24;;;;;;;4.38;1.95;;;;;;;33.33;40.62;99670.13;7396455;19;20017;-68
2023/05/07 05:29:50;;;;;;;6.85;0.77;;;;;;;33.82;39.47;99668.41;7396775;19;20014;-68
2023/05/07 05:32:17;;;;;;;5.15;1.38;;;;;;;33.96;39.38;99672.00;7396706;19;20018;-68
2023/05/07 05:34:44;;;;;;;2.78;1.50;;;;;;;33.93;39.06;99673.31;7397062;19;20006;-68
2023/05/07 05:37:10;;;;;;;6.78;2.05;;;;;;;33.91;39.01;99673.22;7396521;19;20027;-68
2023/05/07 05:39:37;;;;;;;2.30;1.23;;;;;;;33.93;39.19;99684.13;7397482;19;20010;-68
2023/05/07 05:42:04;;;;;;;5.03;1.67;;;;;;;33.96;39.09;99685.72;7396587;19;20140;-68
2023/05/07 05:44:33;;;;;;;3.35;1.08;;;;;;;34.02;38.96;99688.97;7395370;19;20014;-67
2023/05/07 05:46:59;;;;;;;1.15;0.98;;;;;;;34.01;38.40;99696.88;7397813;19;20494;-68
2023/05/07 05:49:27;;;;;;;6.43;2.65;;;;;;;34.09;38.84;99687.88;7394514;19;20062;-69
2023/05/07 05:51:53;;;;;;;3.60;0.75;;;;;;;34.04;38.16;99695.59;7392316;19;20039;-68
2023/05/07 05:54:20;;;;;;;3.95;2.05;;;;;;;33.94;38.71;99697.91;7393763;19;20017;-68
2023/05/07 05:56:48;;;;;;;1.10;0.82;;;;;;;33.91;38.66;99695.59;7396225;19;20018;-67
2023/05/07 05:59:15;;;;;;;7.32;2.83;;;;;;;33.86;39.15;99706.19;7395555;19;20010;-67
2023/05/07 06:01:41;;;;;;;1.80;1.10;;;;;;;34.18;38.49;99710.75;7395326;19;20010;-67
2023/05/07 06:04:07;;;;;;;2.83;1.23;;;;;;;33.71;38.77;99718.38;7392553;19;20715;-67
2023/05/07 06:06:34;;;;;;;2.60;0.82;;;;;;;33.72;39.13;99711.22;7391836;19;20108;-67
2023/05/07 06:09:02;;;;;;;4.55;1.35;;;;;;;33.71;38.95;99714.75;7391934;19;20043;-67
2023/05/07 06:11:35;;;;;;;4.10;1.77;;;;;;;33.74;39.01;99708.44;7399641;19;20496;-67
2023/05/07 06:14:02;;;;;;;2.83;0.95;;;;;;;33.85;38.96;99709.72;7399153;19;20027;-67
2023/05/07 06:16:29;;;;;;;4.80;0.93;;;;;;;33.92;39.00;99718.03;7399122;19;20014;-67
2023/05/07 06:18:56;;;;;;;4.13;1.38;;;;;;;34.15;38.40;99712.06;7400167;19;20081;-67
2023/05/07 06:21:22;;;;;;;4.47;1.38;;;;;;;34.23;38.31;99717.50;7403531;19;20044;-66
2023/05/07 06:23:48;;;;;;;4.30;0.57;;;;;;;34.38;38.29;99727.63;7405386;19;20018;-66
2023/05/07 06:26:15;;;;;;;5.57;1.02;;;;;;;34.64;38.41;99726.06;7399090;19;20363;-64
2023/05/07 06:28:44;;;;;;;14.85;1.60;;;;;;;34.57;38.35;99738.72;7401273;19;20344;-64
2023/05/07 06:31:20;;;;;;;8.70;1.88;;;;;;;33.39;40.16;99736.84;7401217;19;20018;-65
2023/05/07 06:33:52;;;;;;;7.70;1.20;;;;;;;34.45;38.52;99744.66;7400399;19;20018;-67
2023/05/07 06:36:19;;;;;;;3.10;1.25;;;;;;;34.60;38.26;99743.22;7398880;19;20010;-67
2023/05/07 06:38:46;;;;;;;2.75;0.73;;;;;;;34.68;38.03;99732.06;7399155;19;20034;-67
2023/05/07 06:41:12;;;;;;;7.88;1.13;;;;;;;34.65;37.91;99744.94;7399458;19;20006;-67
2023/05/07 06:43:39;;;;;;;6.47;1.17;;;;;;;34.57;37.76;99750.31;7398833;19;20007;-66
2023/05/07 06:46:29;;;;;;;9.70;1.83;;;;;;;34.60;37.50;99760.59;7398674;19;20070;-66
2023/05/07 06:48:56;;;;;;;8.88;2.15;;;;;;;34.53;37.65;99758.78;7400333;19;20467;-67
2023/05/07 06:51:23;;;;;;;6.72;1.38;;;;;;;34.52;37.75;99755.16;7395914;19;20027;-68
2023/05/07 06:53:49;;;;;;;3.60;1.27;;;;;;;34.57;37.63;99750.31;7398186;19;20010;-67
2023/05/07 06:56:16;;;;;;;3.92;1.17;;;;;;;34.65;37.60;99763.06;7402370;19;20035;-67
2023/05/07 06:58:42;;;;;;;5.05;1.83;;;;;;;34.83;37.65;99774.75;7398538;19;20015;-67
2023/05/07 07:01:09;;;;;;;1.65;1.02;;;;;;;34.80;37.29;99773.19;7397649;19;20028;-67
2023/05/07 07:03:37;;;;;;;5.75;1.67;;;;;;;34.88;36.97;99767.78;7398358;19;20022;-66
2023/05/07 07:06:03;;;;;;;7.40;1.20;;;;;;;34.83;37.06;99766.06;7401195;19;20017;-66
2023/05/07 07:08:30;;;;;;;7.70;1.30;;;;;;;34.81;36.75;99777.56;7397827;19;20003;-65
2023/05/07 07:10:57;;;;;;;3.63;1.00;;;;;;;34.82;36.88;99776.16;7398382;19;20019;-65
2023/05/07 07:13:24;;;;;;;4.25;1.15;;;;;;;34.75;36.34;99769.34;7397915;19;20408;-65
2023/05/07 07:15:51;;;;;;;7.65;1.42;;;;;;;34.83;36.72;99774.75;7400642;19;20039;-65
2023/05/07 07:18:18;;;;;;;3.15;0.95;;;;;;;34.77;36.92;99774.47;7399221;19;20031;-65
2023/05/07 07:20:46;;;;;;;10.27;0.98;;;;;;;34.92;37.11;99774.50;7395943;19;20031;-64
2023/05/07 07:23:14;;;;;;;5.30;1.20;;;;;;;35.02;37.10;99775.03;7398984;19;20655;-65
2023/05/07 07:25:41;;;;;;;4.93;1.40;;;;;;;35.17;36.70;99778.63;7401022;19;20014;-65
2023/05/07 07:28:07;;;;;;;2.47;1.42;;;;;;;35.17;36.40;99785.16;7397298;19;20024;-64
2023/05/07 07:30:35;;;;;;;1.80;1.23;;;;;;;35.22;36.69;99783.94;7394740;19;20010;-65
2023/05/07 07:33:03;;;;;;;2.10;0.45;;;;;;;35.40;36.37;99793.50;7397282;19;20017;-66
2023/05/07 07:35:34;;;;;;;5.78;2.60;;;;;;;35.31;36.24;99797.41;7400550;19;20499;-65
2023/05/07 07:38:04;;;;;;;5.45;1.05;;;;;;;35.41;36.41;99794.25;7396727;19;20023;-67
2023/05/07 07:40:30;;;;;;;3.65;1.70;;;;;;;35.55;36.68;99792.78;7397222;19;20463;-65
2023/05/07 07:42:57;;;;;;;3.88;1.27;;;;;;;35.56;35.96;99784.84;7397024;19;20403;-64
2023/05/07 07:45:23;;;;;;;7.18;0.95;;;;;;;35.62;35.93;99785.88;7398740;19;20015;-65
2023/05/07 07:47:51;;;;;;;3.30;0.98;;;;;;;35.72;36.17;99783.44;7396328;19;20021;-65
2023/05/07 07:50:18;;;;;;;4.50;0.77;;;;;;;35.89;36.00;99787.06;7398849;19;20040;-65
2023/05/07 07:52:44;;;;;;;3.80;0.82;;;;;;;35.76;35.67;99780.72;7397420;19;20585;-65
2023/05/07 07:55:17;;;;;;;11.60;1.30;;;;;;;35.94;35.32;99780.03;7399096;19;20010;-65
2023/05/07 07:57:44;;;;;;;3.25;1.20;;;;;;;35.45;35.07;99780.69;7395937;19;20039;-64
2023/05/07 08:00:11;;;;;;;5.50;0.88;;;;;;;34.91;35.28;99783.84;7396081;19;20066;-65
2023/05/07 08:02:42;;;;;;;0.70;0.45;;;;;;;35.03;34.92;99787.34;7396799;19;20391;-65
2023/05/07 08:05:10;;;;;;;4.18;0.90;;;;;;;34.91;35.97;99783.84;7397245;19;20013;-65
2023/05/07 08:07:37;;;;;;;5.20;1.17;;;;;;;35.09;36.07;99787.66;7397135;19;20015;-65
2023/05/07 08:10:03;;;;;;;4.60;0.82;;;;;;;35.08;35.91;99786.16;7397243;19;20086;-65
2023/05/07 08:12:30;;;;;;;6.32;0.82;;;;;;;34.86;35.75;99794.47;7395617;19;20020;-65
2023/05/07 08:14:56;;;;;;;6.38;1.80;;;;;;;34.66;36.00;99804.28;7398804;19;20044;-66
2023/05/07 08:17:22;;;;;;;1.33;0.30;;;;;;;34.50;35.88;99797.69;7395635;19;20329;-66
2023/05/07 08:19:49;;;;;;;1.40;0.75;;;;;;;34.77;35.85;99797.63;7399523;19;20014;-65
2023/05/07 08:22:17;;;;;;;7.80;0.32;;;;;;;34.82;35.80;99805.09;7397149;19;20017;-65
2023/05/07 08:24:44;;;;;;;1.70;0.73;;;;;;;34.78;36.36;99810.69;7397972;19;20015;-63
2023/05/07 08:27:11;;;;;;;10.10;1.20;;;;;;;35.29;35.95;99811.78;7395567;19;20018;-64
2023/05/07 08:29:40;;;;;;;1.70;0.63;;;;;;;35.55;35.42;99815.22;7394885;19;20115;-64
2023/05/07 08:32:07;;;;;;;2.53;1.02;;;;;;;35.42;35.82;99819.66;7394631;19;20011;-65
2023/05/07 08:34:33;;;;;;;4.38;0.77;;;;;;;35.95;35.16;99825.03;7393000;19;20014;-65
2023/05/07 08:37:02;;;;;;;2.78;1.02;;;;;;;36.31;35.21;99817.97;7399433;19;20348;-66
2023/05/07 08:39:29;;;;;;;4.00;1.15;;;;;;;36.57;34.60;99821.28;7395007;19;20010;-65
2023/05/07 08:41:57;;;;;;;6.25;1.30;;;;;;;36.54;34.54;99820.44;7395345;19;20393;-65
2023/05/07 08:44:27;;;;;;;0.93;0.57;;;;;;;36.38;34.54;99823.38;7395717;19;20018;-65
2023/05/07 08:46:56;;;;;;;;;;;;;;;36.30;33.84;99823.00;7398689;19;20014;-65
2023/05/07 08:49:23;;;;;;;3.03;1.08;;;;;;;36.18;34.02;99830.44;7397383;19;19911;-65
2023/05/07 08:51:51;;;;;;;3.13;0.52;;;;;;;36.10;34.68;99833.00;7394809;19;20018;-65
2023/05/07 08:54:20;;;;;;;1.30;0.55;;;;;;;36.09;34.68;99831.47;7394688;19;20017;-65
2023/05/07 08:56:46;;;;;;;1.63;0.38;;;;;;;36.16;34.25;99844.84;7399695;19;20010;-65
2023/05/07 08:59:13;;;;;;;2.55;0.90;;;;;;;35.97;34.34;99836.75;7393979;19;20077;-65
2023/05/07 09:01:41;;;;;;;12.05;2.38;;;;;;;35.74;34.39;99844.38;7394632;19;20030;-65
2023/05/07 09:04:09;;;;;;;4.72;1.42;;;;;;;35.74;34.80;99843.63;7393908;19;20010;-65
2023/05/07 09:06:36;;;;;;;2.50;0.77;;;;;;;35.66;34.88;99849.06;7397841;19;20033;-65
2023/05/07 09:09:05;;;;;;;3.80;1.13;;;;;;;35.39;34.93;99849.19;7393557;19;20011;-65
2023/05/07 09:11:32;;;;;;;2.05;1.08;;;;;;;35.38;35.34;99848.44;7395917;19;20479;-65
2023/05/07 09:14:01;;;;;;;1.40;0.73;;;;;;;35.56;34.78;99846.41;7394335;19;20030;-68
2023/05/07 09:16:30;;;;;;;2.38;1.10;;;;;;;35.68;34.62;99847.00;7396271;19;20039;-66
2023/05/07 09:19:00;;;;;;;5.82;0.73;;;;;;;36.07;34.48;99848.78;7395104;19;20021;-66
2023/05/07 09:21:29;;;;;;;0.60;0.35;;;;;;;36.18;34.34;99847.84;7391719;19;20014;-67
2023/05/07 09:23:58;;;;;;;2.08;0.60;;;;;;;35.57;34.59;99850.06;7391601;19;20019;-65
2023/05/07 09:26:34;;;;;;;1.35;0.90;;;;;;;35.95;34.51;99845.31;7394626;19;20029;-67
2023/05/07 09:29:01;;;;;;;3.97;1.33;;;;;;;36.41;33.90;99850.31;7392135;19;20488;-67
2023/05/07 09:31:28;;;;;;;7.22;1.45;;;;;;;38.87;31.70;99849.19;7391262;19;20011;-66
2023/05/07 09:33:56;;;;;;;2.55;1.08;;;;;;;39.56;31.06;99842.69;7393812;19;20047;-66
2023/05/07 09:36:24;;;;;;;4.13;1.40;;;;;;;39.95;30.15;99854.09;7395962;19;20011;-67
2023/05/07 09:38:51;;;;;;;2.20;1.05;;;;;;;39.87;30.37;99854.56;7395498;19;20013;-67
2023/05/07 09:41:18;;;;;;;3.05;1.40;;;;;;;39.86;30.04;99864.78;7392155;19;20474;-67
2023/05/07 09:43:55;;;;;;;2.33;1.30;;;;;;;39.80;29.32;99869.69;7392455;19;20317;-68
2023/05/07 09:46:29;;;;;;;1.70;1.23;;;;;;;39.69;29.71;99870.78;7392547;19;20014;-68
2023/05/07 09:48:59;;;;;;;4.47;1.50;;;;;;;39.53;29.53;99871.00;7390550;19;20017;-68
2023/05/07 09:51:39;;;;;;;2.67;1.60;;;;;;;39.54;29.47;99869.59;7388743;19;20027;-68
2023/05/07 09:54:06;;;;;;;3.38;1.15;;;;;;;39.68;29.44;99875.88;7392954;19;20018;-67
2023/05/07 09:56:37;;;;;;;1.77;0.95;;;;;;;39.57;28.61;99882.81;7394120;19;20551;-68
2023/05/07 09:59:06;;;;;;;5.00;0.33;;;;;;;39.67;29.36;99880.22;7391618;19;20011;-67
2023/05/07 10:01:36;;;;;;;1.98;1.10;;;;;;;39.96;28.82;99882.56;7391755;19;20086;-66
2023/05/07 10:04:04;;;;;;;11.95;0.75;;;;;;;40.07;28.61;99881.47;7394239;19;20014;-66
2023/05/07 10:06:31;;;;;;;3.25;0.60;;;;;;;39.99;29.06;99887.06;7395200;19;20003;-68
2023/05/07 10:08:59;;;;;;;3.85;1.20;;;;;;;40.05;29.43;99884.31;7392802;19;20018;-68
2023/05/07 10:11:26;;;;;;;2.95;0.38;;;;;;;40.21;28.51;99884.06;7394112;19;20017;-68
2023/05/07 10:13:52;;;;;;;1.27;0.85;;;;;;;40.31;28.60;99878.50;7392112;19;20074;-69
2023/05/07 10:16:20;;;;;;;2.83;1.08;;;;;;;26.70;43.34;99899.78;7395724;19;20460;-67
2023/05/07 10:18:49;;;;;;;4.03;0.63;;;;;;;36.85;35.73;99881.28;7394663;19;20452;-68
2023/05/07 10:21:22;;;;;;;5.63;1.25;;;;;;;40.01;30.70;99878.38;7391495;19;20027;-68
2023/05/07 10:23:57;;;;;;;1.48;0.93;;;;;;;41.01;29.27;99879.69;7392975;19;20010;-68
2023/05/07 10:26:27;;;;;;;0.65;0.55;;;;;;;40.92;28.67;99872.16;7393829;19;20032;-68
2023/05/07 10:28:59;;;;;;;3.70;0.63;;;;;;;41.25;28.57;99882.50;7391087;19;20014;-70
2023/05/07 10:31:26;;;;;;;1.75;0.82;;;;;;;41.77;28.15;99883.00;7389363;19;20358;-70
2023/05/07 10:33:56;;;;;;;0.60;0.45;;;;;;;41.71;28.14;99871.94;7391837;19;20022;-69
2023/05/07 10:36:25;;;;;;;1.13;0.30;;;;;;;41.82;28.14;99876.56;7395533;19;20019;-70
2023/05/07 10:38:53;;;;;;;2.63;1.08;;;;;;;42.01;27.41;99878.44;7393134;19;20040;-69
2023/05/07 10:41:20;;;;;;;1.10;0.50;;;;;;;42.41;26.76;99887.31;7391038;19;20501;-71
2023/05/07 10:43:47;;;;;;;1.35;0.80;;;;;;;42.55;26.61;99884.69;7391084;19;20100;-70
2023/05/07 10:46:24;;;;;;;0.75;0.40;;;;;;;42.59;26.12;99873.06;7394015;19;20015;-69
2023/05/07 10:49:10;;;;;;;2.20;0.75;;;;;;;42.49;26.51;99881.66;7392101;19;20477;-70
2023/05/07 10:51:41;;;;;;;1.80;0.90;;;;;;;42.71;26.38;99876.19;7389768;19;20018;-71
2023/05/07 10:54:22;;;;;;;5.30;1.33;;;;;;;42.65;25.89;99881.19;7390826;19;20010;-69
2023/05/07 10:56:56;;;;;;;1.13;0.30;;;;;;;42.49;25.97;99887.50;7398808;19;20035;-66
2023/05/07 10:59:31;;;;;;;;;;;;;;;42.46;26.77;99888.91;7399824;19;20022;-69
2023/05/07 11:02:05;;;;;;;1.23;0.50;;;;;;;42.17;27.06;99892.69;7398332;19;19923;-69
2023/05/07 11:05:20;;;;;;;1.67;0.75;;;;;;;42.29;26.15;99895.88;7397729;19;20014;-69
2023/05/07 11:07:58;;;;;;;3.58;0.75;;;;;;;42.21;26.32;99899.34;7398246;19;20035;-67
2023/05/07 11:10:50;;;;;;;3.90;1.15;;;;;;;42.36;26.36;99902.59;7395493;19;20006;-68
2023/05/07 11:13:47;;;;;;;1.20;0.95;;;;;;;42.04;26.16;99896.78;7398320;19;20035;-68
2023/05/07 11:16:41;;;;;;;2.45;0.88;;;;;;;41.61;26.12;99903.13;7397826;19;20006;-67
2023/05/07 11:20:01;;;;;;;0.45;0.40;;;;;;;39.72;28.21;99904.44;7400230;19;20022;-66
2023/05/07 11:22:43;;;;;;;0.80;0.32;;;;;;;38.93;28.60;99904.72;7394814;19;20051;-68
2023/05/07 11:25:21;;;;;;;1.13;0.55;;;;;;;39.18;28.31;99900.50;7397077;19;20013;-66
2023/05/07 11:27:55;;;;;;;0.70;0.17;;;;;;;39.19;28.07;99905.63;7397272;19;20353;-63
2023/05/07 11:30:22;;;;;;;3.17;0.63;;;;;;;39.08;27.71;99914.69;7396403;19;20026;-63
2023/05/07 11:32:48;;;;;;;0.73;0.47;;;;;;;39.25;28.41;99900.00;7399013;19;20070;-63
2023/05/07 11:35:17;;;;;;;2.05;0.52;;;;;;;39.11;28.14;99893.69;7397562;19;20018;-68
2023/05/07 11:37:46;;;;;;;2.50;0.77;;;;;;;36.28;31.52;99907.06;7396442;19;20011;-70